ADDS METAR Data INFO
IDs: Format: Raw Decoded Include TAF

Data at: 2255 UTC 22 Jun 2018

KMNE 222235Z AUTO 22009G14KT 10SM SCT065 36/22 A2978 RMK AO2 T03550219
KMNE 222215Z AUTO 20007KT 10SM SCT050 SCT065 36/22 A2978 RMK AO2 T03610222 PWINO
KMNE 222155Z AUTO 21007KT 10SM SCT055 BKN065 36/22 A2979 RMK AO2 T03620224
KMNE 222135Z AUTO 24007G18KT 10SM SCT049 SCT065 35/22 A2979 RMK AO2 LTG DSNT E AND W T03490222 PWINO
KMNE 222115Z AUTO 22010G17KT 10SM SCT049 SCT070 SCT085 36/23 A2980 RMK AO2 LTG DSNT NE T03610226
KMNE 222055Z AUTO 22009KT 10SM SCT047 SCT085 36/23 A2981 RMK AO2 T03590226
KMNE 222035Z AUTO 21012G17KT 10SM SCT047 SCT095 36/23 A2981 RMK AO2 LTG DSNT NE T03570226
KMNE 222015Z AUTO 25010G18KT 10SM BKN047 BKN055 36/23 A2981 RMK AO2 T03590225 PWINO
KMNE 221955Z AUTO 22008G16KT 10SM SCT047 SCT055 35/23 A2982 RMK AO2 LTG DSNT NE T03530225
KMNE 221935Z AUTO 22012G18KT 10SM SCT045 35/23 A2981 RMK AO2 LTG DSNT NE T03530225
KMNE 221915Z AUTO 24011G21KT 10SM SCT045 SCT050 35/23 A2982 RMK AO2 LTG DSNT NE T03500225
KMNE 221855Z AUTO 23015G19KT 10SM SCT045 SCT055 35/22 A2984 RMK AO2 LTG DSNT N AND NE T03510224 PWINO
KMNE 221835Z AUTO 24007G17KT 10SM BKN045 34/22 A2985 RMK AO2 LTG DSNT N THRU E T03430222
KMNE 221815Z AUTO 23011G14KT 10SM SCT045 34/22 A2986 RMK AO2 LTG DSNT N AND E T03400219
KMNE 221755Z AUTO 25011KT 10SM SCT040 SCT047 34/22 A2987 RMK AO2 LTG DSNT E T03390221 10340 20260
KMNE 221735Z AUTO 24012KT 10SM SCT040 SCT047 34/22 A2988 RMK AO2 LTG DSNT NE AND E T03370221
KMNE 221715Z AUTO 23008KT 10SM SCT090 33/23 A2989 RMK AO2 LTG DSNT E T03320226 PWINO
KMNE 221655Z AUTO 26007G14KT 220V280 10SM SCT090 32/23 A2989 RMK AO2 LTG DSNT NE T03150227
KMNE 221635Z AUTO 24010KT 10SM SCT031 SCT038 SCT090 32/23 A2989 RMK AO2 T03200231
KMNE 221615Z AUTO 28005KT 10SM SCT029 SCT095 SCT120 32/24 A2989 RMK AO2 LTG DSNT NE T03180235
KMNE 221555Z AUTO 24009KT 10SM SCT029 BKN085 BKN120 32/23 A2989 RMK AO2 LTG DSNT NE T03170234
KMNE 221535Z AUTO 25009KT 10SM BKN029 BKN085 31/24 A2990 RMK AO2 T03140236
KMNE 221515Z AUTO 26011KT 10SM BKN025 31/24 A2989 RMK AO2 LTG DSNT NE AND E T03070235
KMNE 221455Z AUTO 24009G15KT 10SM BKN023 BKN028 30/24 A2989 RMK AO2 T03020237
KMNE 221435Z AUTO 24009G14KT 10SM SCT019 30/24 A2988 RMK AO2 LTG DSNT NE T02950236 PWINO
KMNE 221415Z AUTO 22008KT 10SM BKN017 BKN090 29/24 A2987 RMK AO2 T02860238 PWINO
KMNE 221355Z AUTO 24009KT 10SM OVC015 28/24 A2988 RMK AO2 T02810239
KMNE 221335Z AUTO 24009G14KT 10SM OVC013 28/24 A2987 RMK AO2 LTG DSNT NE T02770239
KMNE 221315Z AUTO 21008G14KT 10SM OVC011 27/24 A2987 RMK AO2 T02720239
KMNE 221255Z AUTO 21006KT 10SM OVC011 27/24 A2986 RMK AO2 T02670237
KMNE 221235Z AUTO 20008KT 7SM OVC011 27/24 A2986 RMK AO2 T02650237
KMNE 221215Z AUTO 21010KT 10SM OVC009 26/24 A2986 RMK AO2 T02610237
KMNE 221155Z AUTO 21008G17KT 10SM OVC009 26/24 A2986 RMK AO2 T02600237 10265 20259
KMNE 221135Z AUTO 22009KT 10SM OVC009 26/24 A2986 RMK AO2 T02600239
KMNE 221115Z AUTO 22008KT 7SM OVC009 26/24 A2985 RMK AO2 T02600240
KMNE 221055Z AUTO 22008KT 10SM OVC009 26/24 A2986 RMK AO2 T02600241
KMNE 221035Z AUTO 21009KT 10SM OVC009 26/24 A2985 RMK AO2 T02600241
KMNE 221015Z AUTO 20006KT 10SM OVC009 26/24 A2984 RMK AO2 T02600242
KMNE 220955Z AUTO 21007KT 10SM OVC009 26/24 A2985 RMK AO2 T02620244
KMNE 220935Z AUTO 21007KT 10SM OVC007 27/25 A2985 RMK AO2 T02650245
KMNE 220915Z AUTO 21006KT 10SM OVC007 27/25 A2985 RMK AO2 T02650246
KMNE 220855Z AUTO 22008KT 7SM OVC007 27/25 A2985 RMK AO2 T02650247
KMNE 220835Z AUTO 20008KT 7SM OVC007 27/25 A2984 RMK AO2 T02650248
KMNE 220815Z AUTO 21007KT 7SM OVC007 26/25 A2985 RMK AO2 T02630248
KMNE 220755Z AUTO 21005KT 7SM OVC007 26/25 A2985 RMK AO2 T02620247
KMNE 220735Z AUTO 20006KT 7SM OVC007 26/25 A2985 RMK AO2 T02600245 PWINO
KMNE 220715Z AUTO 20006KT 7SM BKN009 26/25 A2985 RMK AO2 T02610245
KMNE 220655Z AUTO 19005KT 10SM SCT009 26/25 A2985 RMK AO2 T02620245
KMNE 220635Z AUTO 20005KT 10SM CLR 26/24 A2985 RMK AO2 T02620243
KMNE 220615Z AUTO 19005KT 10SM CLR 27/24 A2985 RMK AO2 T02650242
KMNE 220555Z AUTO 20006KT 10SM CLR 27/24 A2986 RMK AO2 T02650240 10329 20262 403360237
KMNE 220535Z AUTO 19004KT 10SM CLR 27/24 A2986 RMK AO2 T02650237
KMNE 220515Z AUTO 19003KT 10SM CLR 27/24 A2987 RMK AO2 T02650235
KMNE 220455Z AUTO 20003KT 10SM CLR 27/24 A2987 RMK AO2 T02660236
KMNE 220435Z AUTO 19003KT 10SM CLR 27/24 A2987 RMK AO2 T02660236
KMNE 220415Z AUTO 00000KT 10SM CLR 27/24 A2987 RMK AO2 T02650235
KMNE 220355Z AUTO 00000KT 10SM CLR 27/24 A2987 RMK AO2 T02680235
KMNE 220335Z AUTO 00000KT 10SM CLR 27/23 A2987 RMK AO2 T02690233
KMNE 220315Z AUTO 00000KT 10SM CLR 27/23 A2987 RMK AO2 T02680232
KMNE 220255Z AUTO 00000KT 10SM CLR 26/23 A2987 RMK AO2 T02620232
KMNE 220235Z AUTO 00000KT 10SM CLR 27/23 A2987 RMK AO2 T02700232 PWINO
KMNE 220215Z AUTO 00000KT 10SM CLR 28/23 A2986 RMK AO2 T02750231
KMNE 220155Z AUTO 00000KT 10SM CLR 29/23 A2986 RMK AO2 T02890231
KMNE 220135Z AUTO 00000KT 10SM CLR 30/23 A2986 RMK AO2 T02950232
KMNE 220115Z AUTO 00000KT 10SM CLR 30/23 A2985 RMK AO2 T03030230
KMNE 220055Z AUTO 26003KT 10SM CLR 31/23 A2985 RMK AO2 T03110227
KMNE 220035Z AUTO 26004KT 10SM CLR 32/23 A2985 RMK AO2 T03190226
KMNE 220015Z AUTO 25006KT 10SM CLR 32/23 A2985 RMK AO2 T03240225 PWINO
KMNE 212355Z AUTO 25005KT 10SM CLR 33/22 A2985 RMK AO2 T03300224 10336 20303
KMNE 212335Z AUTO 26006KT 10SM CLR 33/22 A2985 RMK AO2 T03300219
KMNE 212315Z AUTO 26005KT 10SM SCT044 33/22 A2985 RMK AO2 T03320221
KMNE 212255Z AUTO 25008KT 10SM CLR 33/22 A2985 RMK AO2 T03340222
KMNE 212235Z AUTO 27008KT 220V280 10SM SCT042 34/22 A2985 RMK AO2 T03360222 PWINO
KMNE 212215Z AUTO 24007KT 10SM SCT042 33/23 A2985 RMK AO2 T03330228
KMNE 212155Z AUTO 25007G14KT 10SM SCT040 SCT046 SCT050 34/23 A2986 RMK AO2 T03350225
KMNE 212135Z AUTO 28007KT 10SM SCT038 BKN048 BKN060 33/23 A2986 RMK AO2 T03320229
KMNE 212115Z AUTO 27006G14KT 10SM SCT035 SCT040 SCT046 33/23 A2987 RMK AO2 T03250232
KMNE 212055Z AUTO 27008KT 10SM SCT035 SCT042 33/23 A2987 RMK AO2 T03330232
KMNE 212035Z AUTO 25006KT 10SM SCT033 SCT040 33/24 A2988 RMK AO2 T03260237
KMNE 212015Z AUTO 25006KT 10SM SCT033 33/24 A2988 RMK AO2 T03270239
KMNE 211955Z AUTO 25007KT 10SM SCT033 32/23 A2989 RMK AO2 T03180233
KMNE 211935Z AUTO 26005KT 10SM SCT031 SCT040 SCT065 32/23 A2989 RMK AO2 T03180231
KMNE 211915Z AUTO 23006KT 10SM SCT029 SCT040 SCT049 32/24 A2990 RMK AO2 T03230236 PWINO
KMNE 211855Z AUTO 26004KT 10SM BKN029 BKN039 BKN049 30/24 A2991 RMK AO2 T03030235
KMNE 211835Z AUTO 27007KT 10SM SCT027 SCT047 32/23 A2992 RMK AO2 T03170231
KMNE 211815Z AUTO 30006KT 10SM CLR 32/24 A2992 RMK AO2 T03150236 PWINO
KMNE 211755Z AUTO 32007KT 300V360 10SM SCT025 SCT031 SCT055 31/24 A2993 RMK AO2 T03070238 10307 20240
KMNE 211735Z AUTO 30008KT 10SM SCT023 SCT029 BKN055 31/23 A2993 RMK AO2 T03060234
KMNE 211715Z AUTO 29005KT 10SM SCT023 BKN029 BKN042 30/24 A2994 RMK AO2 T02990235
KMNE 211655Z AUTO 31006KT 10SM BKN023 BKN031 BKN038 29/23 A2994 RMK AO2 T02900234
KMNE 211635Z AUTO 30005KT 10SM SCT021 BKN029 29/23 A2994 RMK AO2 T02940234
KMNE 211615Z AUTO 22005KT 10SM BKN019 BKN029 29/24 A2993 RMK AO2 T02930235 PWINO
KMNE 211555Z AUTO 23006KT 10SM BKN017 BKN022 29/24 A2993 RMK AO2 T02870236
KMNE 211535Z AUTO 23006KT 10SM BKN015 BKN020 28/23 A2993 RMK AO2 T02790233
KMNE 211515Z AUTO 24008KT 10SM OVC015 27/23 A2994 RMK AO2 T02740233
KMNE 211455Z AUTO 25006KT 10SM BKN012 OVC018 28/24 A2994 RMK AO2 T02750239
KMNE 211435Z AUTO 24007KT 10SM OVC010 27/24 A2994 RMK AO2 T02650236
KMNE 211355Z AUTO 22005KT 10SM OVC010 26/23 A2994 RMK AO2 T02580234 PWINO
KMNE 211335Z AUTO 23007KT 10SM OVC008 26/23 A2994 RMK AO2 T02550232
KMNE 211315Z AUTO 22008KT 10SM OVC006 25/24 A2993 RMK AO2 LTG DSNT S T02520235
KMNE 211255Z AUTO 21005KT 10SM BKN006 OVC009 25/24 A2992 RMK AO2 LTG DSNT S T02470235
KMNE 211235Z AUTO 21005KT 10SM BKN006 BKN009 25/23 A2992 RMK AO2 T02450233
KMNE 211215Z AUTO 19003KT 7SM SCT004 24/23 A2992 RMK AO2 LTG DSNT S T02420232
KMNE 211155Z AUTO 00000KT 7SM BKN006 24/23 A2991 RMK AO2 70017 T02400230 10253 20237
KMNE 211135Z AUTO 00000KT 7SM BKN006 BKN065 24/23 A2991 RMK AO2 T02380228
KMNE 211115Z AUTO 00000KT 5SM BR SCT065 24/23 A2990 RMK AO2 T02380228